createdAt,value
2023-03-25T00:01:25.844Z,98797.19
2023-03-25T00:03:54.743Z,98796.34
2023-03-25T00:06:23.153Z,98804.22
2023-03-25T00:08:52.118Z,98807.94
2023-03-25T00:11:20.601Z,98813.44
2023-03-25T00:13:49.316Z,98804.28
2023-03-25T00:16:20.342Z,98802.94
2023-03-25T00:18:50.097Z,98802.69
2023-03-25T00:21:19.108Z,98803.25
2023-03-25T00:23:48.100Z,98798.66
2023-03-25T00:26:16.561Z,98795.09
2023-03-25T00:28:44.992Z,98794.19
2023-03-25T00:31:15.888Z,98798.53
2023-03-25T00:33:46.071Z,98787.06
2023-03-25T00:36:15.302Z,98784.47
2023-03-25T00:38:45.864Z,98782.56
2023-03-25T00:41:23.456Z,98791.41
2023-03-25T00:43:54.099Z,98798.94
2023-03-25T00:46:23.330Z,98798.31
2023-03-25T00:48:54.410Z,98795.59
2023-03-25T00:51:24.386Z,98804.63
2023-03-25T00:53:54.509Z,98798.84
2023-03-25T00:56:23.739Z,98804.00
2023-03-25T00:58:53.217Z,98809.03
2023-03-25T01:01:27.526Z,98814.06
2023-03-25T01:03:59.615Z,98806.94
2023-03-25T01:06:30.364Z,98808.41
2023-03-25T01:08:59.634Z,98798.75
2023-03-25T01:11:31.095Z,98797.81
2023-03-25T01:14:00.923Z,98801.28
2023-03-25T01:16:30.465Z,98801.03
2023-03-25T01:19:00.477Z,98804.44
2023-03-25T01:21:29.055Z,98804.31
2023-03-25T01:23:57.720Z,98807.56
2023-03-25T01:26:26.283Z,98791.72
2023-03-25T01:28:54.979Z,98783.59
2023-03-25T01:31:26.230Z,98794.75
2023-03-25T01:33:55.011Z,98790.22
2023-03-25T01:36:25.957Z,98786.66
2023-03-25T01:38:54.617Z,98781.19
2023-03-25T01:41:23.953Z,98774.38
2023-03-25T01:44:07.037Z,98772.81
2023-03-25T01:46:36.225Z,98780.25
2023-03-25T01:49:08.456Z,98772.47
2023-03-25T01:51:41.877Z,98770.91
2023-03-25T01:54:12.951Z,98769.53
2023-03-25T01:56:43.063Z,98785.91
2023-03-25T01:59:12.316Z,98788.88
2023-03-25T02:01:40.611Z,98787.31
2023-03-25T02:04:12.273Z,98781.53
2023-03-25T02:06:45.613Z,98784.53
2023-03-25T02:09:17.983Z,98793.16
2023-03-25T02:11:46.812Z,98790.13
2023-03-25T02:14:19.178Z,98793.25
2023-03-25T02:16:59.624Z,98789.16
2023-03-25T02:20:09.379Z,98795.72
2023-03-25T02:22:59.632Z,98785.22
2023-03-25T02:26:00.781Z,98790.97
2023-03-25T02:28:37.188Z,98788.84
2023-03-25T02:31:33.806Z,98783.16
2023-03-25T02:34:37.982Z,98781.97
2023-03-25T02:37:26.579Z,98779.22
2023-03-25T02:40:02.069Z,98780.53
2023-03-25T02:42:36.201Z,98766.16
2023-03-25T02:45:10.630Z,98766.53
2023-03-25T02:47:46.039Z,98774.88
2023-03-25T02:50:18.437Z,98788.06
2023-03-25T02:52:49.439Z,98788.06
2023-03-25T02:55:23.071Z,98782.81
2023-03-25T02:57:54.852Z,98771.41
2023-03-25T03:00:28.704Z,98788.06
2023-03-25T03:03:00.962Z,98784.88
2023-03-25T03:05:33.598Z,98790.50
2023-03-25T03:08:19.756Z,98783.66
2023-03-25T03:10:57.419Z,98804.72
2023-03-25T03:13:36.596Z,98804.91
2023-03-25T03:16:14.330Z,98802.22
2023-03-25T03:18:51.771Z,98800.63
2023-03-25T03:21:25.023Z,98800.81
2023-03-25T03:24:02.357Z,98802.88
2023-03-25T03:26:39.717Z,98805.84
2023-03-25T03:29:14.838Z,98805.50
2023-03-25T03:32:05.837Z,98802.50
2023-03-25T03:34:45.196Z,98791.63
2023-03-25T03:37:16.942Z,98791.16
2023-03-25T03:39:49.061Z,98804.53
2023-03-25T03:42:24.402Z,98797.25
2023-03-25T03:44:57.438Z,98802.94
2023-03-25T03:47:29.994Z,98798.03
2023-03-25T03:50:01.707Z,98796.56
2023-03-25T03:52:34.681Z,98802.13
2023-03-25T03:55:10.914Z,98809.41
2023-03-25T03:57:46.978Z,98794.91
2023-03-25T04:00:21.310Z,98796.06
2023-03-25T04:02:52.248Z,98802.56
2023-03-25T04:05:24.596Z,98803.00
2023-03-25T04:07:59.069Z,98815.81
2023-03-25T04:10:39.498Z,98830.41
2023-03-25T04:13:14.120Z,98836.34
2023-03-25T04:15:44.133Z,98837.38
2023-03-25T04:18:12.535Z,98843.81
2023-03-25T04:20:45.018Z,98839.69
2023-03-25T04:23:16.192Z,98838.00
2023-03-25T04:25:47.935Z,98835.47
2023-03-25T04:28:18.240Z,98829.50
2023-03-25T04:30:46.986Z,98834.22
2023-03-25T04:33:15.917Z,98835.34
2023-03-25T04:35:45.882Z,98841.16
2023-03-25T04:38:18.255Z,98853.78
2023-03-25T04:40:48.060Z,98841.28
2023-03-25T04:43:18.886Z,98841.94
2023-03-25T04:45:55.006Z,98842.72
2023-03-25T04:48:30.352Z,98845.34
2023-03-25T04:50:59.342Z,98844.16
2023-03-25T04:53:28.047Z,98849.19
2023-03-25T04:55:57.582Z,98858.81
2023-03-25T04:58:27.418Z,98861.25
2023-03-25T05:00:56.388Z,98864.56
2023-03-25T05:03:25.144Z,98868.47
2023-03-25T05:05:54.085Z,98868.13
2023-03-25T05:08:23.045Z,98857.41
2023-03-25T05:10:52.688Z,98854.63
2023-03-25T05:13:21.629Z,98855.88
2023-03-25T05:15:52.192Z,98849.34
2023-03-25T05:18:22.084Z,98850.75
2023-03-25T05:20:51.567Z,98846.16
2023-03-25T05:23:22.187Z,98840.59
2023-03-25T05:25:52.381Z,98850.88
2023-03-25T05:28:21.635Z,98840.22
2023-03-25T05:30:52.053Z,98841.66
2023-03-25T05:33:21.975Z,98854.66
2023-03-25T05:35:51.120Z,98851.00
2023-03-25T05:38:20.117Z,98847.34
2023-03-25T05:40:50.093Z,98850.72
2023-03-25T05:43:23.274Z,98849.84
2023-03-25T05:45:53.510Z,98853.25
2023-03-25T05:48:22.398Z,98852.38
2023-03-25T05:50:51.281Z,98849.59
2023-03-25T05:53:20.870Z,98857.06
2023-03-25T05:55:52.393Z,98855.22
2023-03-25T05:58:21.600Z,98860.06
2023-03-25T06:00:50.584Z,98858.88
2023-03-25T06:03:26.235Z,98854.28
2023-03-25T06:05:55.410Z,98859.13
2023-03-25T06:08:26.352Z,98858.97
2023-03-25T06:10:59.304Z,98859.44
2023-03-25T06:13:28.166Z,98868.88
2023-03-25T06:15:57.522Z,98865.13
2023-03-25T06:18:27.471Z,98870.16
2023-03-25T06:20:57.892Z,98866.25
2023-03-25T06:23:26.601Z,98875.41
2023-03-25T06:25:56.076Z,98876.81
2023-03-25T06:28:26.431Z,98872.06
2023-03-25T06:30:55.021Z,98880.38
2023-03-25T06:33:43.301Z,98881.69
2023-03-25T06:36:15.586Z,98887.66
2023-03-25T06:38:44.205Z,98886.72
2023-03-25T06:41:15.783Z,98881.19
2023-03-25T06:43:44.667Z,98892.31
2023-03-25T06:46:32.722Z,98889.22
2023-03-25T06:49:27.910Z,98901.91
2023-03-25T06:52:00.118Z,98882.34
2023-03-25T06:54:29.658Z,98879.53
2023-03-25T06:56:58.443Z,98893.19
2023-03-25T06:59:28.554Z,98888.66
2023-03-25T07:01:56.992Z,98888.28
2023-03-25T07:04:25.978Z,98893.22
2023-03-25T07:06:56.024Z,98900.50
2023-03-25T07:09:28.017Z,98892.22
2023-03-25T07:11:56.610Z,98897.09
2023-03-25T07:14:25.275Z,98899.84
2023-03-25T07:16:53.972Z,98894.06
2023-03-25T07:19:22.564Z,98896.63
2023-03-25T07:21:51.088Z,98902.09
2023-03-25T07:24:19.482Z,98895.69
2023-03-25T07:26:49.733Z,98897.91
2023-03-25T07:29:21.747Z,98894.13
2023-03-25T07:31:50.672Z,98897.47
2023-03-25T07:34:19.274Z,98901.41
2023-03-25T07:36:48.087Z,98899.50
2023-03-25T07:39:16.479Z,98901.94
2023-03-25T07:41:46.639Z,98904.88
2023-03-25T07:44:31.329Z,98908.75
2023-03-25T07:46:59.920Z,98903.94
2023-03-25T07:49:28.794Z,98909.50
2023-03-25T07:51:57.259Z,98902.03
2023-03-25T07:54:26.137Z,98904.47
2023-03-25T07:56:55.607Z,98902.59
2023-03-25T07:59:24.359Z,98900.34
2023-03-25T08:01:54.546Z,98903.19
2023-03-25T08:04:23.235Z,98903.28
2023-03-25T08:06:51.884Z,98898.72
2023-03-25T08:09:20.307Z,98900.41
2023-03-25T08:11:49.294Z,98897.81
2023-03-25T08:14:17.922Z,98899.41
2023-03-25T08:16:46.808Z,98895.41
2023-03-25T08:19:16.887Z,98901.16
2023-03-25T08:21:45.535Z,98910.22
2023-03-25T08:24:16.217Z,98906.41
2023-03-25T08:26:45.119Z,98906.19
2023-03-25T08:29:14.928Z,98889.78
2023-03-25T08:31:47.166Z,98896.41
2023-03-25T08:34:18.099Z,98899.84
2023-03-25T08:36:46.933Z,98895.09
2023-03-25T08:39:17.550Z,98896.53
2023-03-25T08:41:46.863Z,98895.38
2023-03-25T08:44:15.626Z,98896.72
2023-03-25T08:46:44.389Z,98897.97
2023-03-25T08:49:13.253Z,98898.84
2023-03-25T08:51:43.144Z,98903.00
2023-03-25T08:54:11.830Z,98897.94
2023-03-25T08:56:41.642Z,98893.63
2023-03-25T08:59:11.681Z,98889.81
2023-03-25T09:01:40.482Z,98877.81
2023-03-25T09:04:09.145Z,98879.41
2023-03-25T09:06:48.078Z,98870.09
2023-03-25T09:09:20.454Z,98866.00
2023-03-25T09:11:49.226Z,98876.56
2023-03-25T09:14:18.147Z,98867.34
2023-03-25T09:16:48.326Z,98872.00
2023-03-25T09:19:17.270Z,98872.50
2023-03-25T09:21:46.460Z,98868.88
2023-03-25T09:24:15.316Z,98871.03
2023-03-25T09:26:46.454Z,98869.44
2023-03-25T09:29:15.281Z,98866.13
2023-03-25T09:31:44.040Z,98871.28
2023-03-25T09:34:14.091Z,98870.38
2023-03-25T09:36:45.907Z,98866.06
2023-03-25T09:39:14.799Z,98868.78
2023-03-25T09:42:03.055Z,98866.47
2023-03-25T09:44:36.839Z,98874.50
2023-03-25T09:47:06.087Z,98866.66
2023-03-25T09:49:40.349Z,98868.66
2023-03-25T09:52:16.807Z,98860.47
2023-03-25T09:54:51.568Z,98862.09
2023-03-25T09:57:29.480Z,98863.59
2023-03-25T10:00:01.630Z,98866.31
2023-03-25T10:02:41.261Z,98865.63
2023-03-25T10:05:30.551Z,98866.13
2023-03-25T10:08:13.700Z,98858.41
2023-03-25T10:10:52.749Z,98852.19
2023-03-25T10:13:29.051Z,98851.53
2023-03-25T10:16:03.537Z,98851.72
2023-03-25T10:18:50.245Z,98850.38
2023-03-25T10:21:25.330Z,98842.28
2023-03-25T10:24:04.330Z,98841.19
2023-03-25T10:26:41.861Z,98847.56
2023-03-25T10:29:17.357Z,98849.25
2023-03-25T10:31:53.507Z,98850.97
2023-03-25T10:34:27.774Z,98843.03
2023-03-25T10:36:58.481Z,98838.44
2023-03-25T10:39:40.097Z,98843.69
2023-03-25T10:42:21.398Z,98833.88
2023-03-25T10:44:52.043Z,98836.88
2023-03-25T10:47:25.045Z,98833.78
2023-03-25T10:49:54.454Z,98830.41
2023-03-25T10:52:23.590Z,98832.63
2023-03-25T10:54:56.533Z,98827.16
2023-03-25T10:57:29.196Z,98817.31
2023-03-25T11:00:11.767Z,98811.50
2023-03-25T11:02:41.366Z,98803.00
2023-03-25T11:05:11.814Z,98810.97
2023-03-25T11:07:43.543Z,98801.81
2023-03-25T11:10:24.952Z,98801.06
2023-03-25T11:12:58.514Z,98801.34
2023-03-25T11:15:35.002Z,98803.19
2023-03-25T11:18:08.417Z,98788.63
2023-03-25T11:20:40.230Z,98787.63
2023-03-25T11:23:16.033Z,98780.63
2023-03-25T11:25:45.272Z,98777.22
2023-03-25T11:28:19.856Z,98774.34
2023-03-25T11:31:10.511Z,98766.91
2023-03-25T11:33:40.407Z,98769.94
2023-03-25T11:36:22.091Z,98766.44
2023-03-25T11:38:57.430Z,98753.44
2023-03-25T11:41:31.929Z,98753.47
2023-03-25T11:44:01.270Z,98747.28
2023-03-25T11:46:34.318Z,98747.59
2023-03-25T11:49:12.217Z,98736.56
2023-03-25T11:51:41.603Z,98730.25
2023-03-25T11:54:15.753Z,98730.97
2023-03-25T11:56:46.213Z,98731.00
2023-03-25T11:59:24.227Z,98744.25
2023-03-25T12:02:03.714Z,98731.94
2023-03-25T12:04:34.237Z,98718.66
2023-03-25T12:07:08.768Z,98723.31
2023-03-25T12:09:38.702Z,98732.69
2023-03-25T12:12:35.197Z,98741.03
2023-03-25T12:15:18.323Z,98720.03
2023-03-25T12:18:00.711Z,98714.09
2023-03-25T12:20:38.456Z,98703.34
2023-03-25T12:23:21.381Z,98705.38
2023-03-25T12:26:01.207Z,98704.41
2023-03-25T12:29:01.824Z,98694.53
2023-03-25T12:31:42.904Z,98687.75
2023-03-25T12:34:26.121Z,98687.59
2023-03-25T12:37:07.328Z,98690.94
2023-03-25T12:39:52.341Z,98697.03
2023-03-25T12:42:34.092Z,98695.81
2023-03-25T12:45:21.147Z,98689.28
2023-03-25T12:47:56.998Z,98686.28
2023-03-25T12:50:39.163Z,98680.09
2023-03-25T12:53:26.203Z,98678.84
2023-03-25T12:56:08.170Z,98689.03
2023-03-25T12:59:02.501Z,98701.84
2023-03-25T13:01:41.622Z,98698.59
2023-03-25T13:04:27.005Z,98684.34
2023-03-25T13:07:02.104Z,98681.09
2023-03-25T13:09:36.564Z,98682.66
2023-03-25T13:12:12.655Z,98684.09
2023-03-25T13:14:46.226Z,98689.31
2023-03-25T13:17:28.419Z,98674.03
2023-03-25T13:20:07.487Z,98675.66
2023-03-25T13:22:44.286Z,98686.88
2023-03-25T13:25:21.836Z,98686.19
2023-03-25T13:27:53.414Z,98680.09
2023-03-25T13:30:32.164Z,98692.06
2023-03-25T13:33:08.299Z,98702.00
2023-03-25T13:35:44.466Z,98704.78
2023-03-25T13:38:20.816Z,98717.22
2023-03-25T13:40:56.044Z,98742.31
2023-03-25T13:43:33.666Z,98750.09
2023-03-25T13:46:09.569Z,98747.88
2023-03-25T13:48:43.447Z,98744.47
2023-03-25T13:51:12.302Z,98746.09
2023-03-25T13:53:47.715Z,98745.94
2023-03-25T13:56:35.911Z,98739.88
2023-03-25T13:59:24.339Z,98743.09
2023-03-25T14:02:31.306Z,98744.38
2023-03-25T14:05:26.822Z,98729.75
2023-03-25T14:08:26.592Z,98727.81
2023-03-25T14:11:10.363Z,98717.34
2023-03-25T14:13:42.168Z,98708.34
2023-03-25T14:16:15.619Z,98700.66
2023-03-25T14:18:47.372Z,98709.50
2023-03-25T14:21:31.699Z,98708.56
2023-03-25T14:24:11.501Z,98705.25
2023-03-25T14:26:48.299Z,98702.06
2023-03-25T14:29:26.564Z,98692.47
2023-03-25T14:32:03.664Z,98694.22
2023-03-25T14:34:32.872Z,98690.97
2023-03-25T14:37:27.321Z,98677.13
2023-03-25T14:39:59.782Z,98678.84
2023-03-25T14:42:32.252Z,98672.13
2023-03-25T14:45:50.146Z,98676.59
2023-03-25T14:48:26.951Z,98679.06
2023-03-25T14:51:23.712Z,98682.88
2023-03-25T14:53:56.170Z,98690.91
2023-03-25T14:56:27.561Z,98689.34
2023-03-25T14:59:00.125Z,98681.22
2023-03-25T15:01:34.510Z,98686.75
2023-03-25T15:04:17.658Z,98679.44
2023-03-25T15:06:49.279Z,98678.47
2023-03-25T15:09:20.556Z,98670.94
2023-03-25T15:11:56.860Z,98678.75
2023-03-25T15:14:31.051Z,98686.00
2023-03-25T15:17:03.304Z,98693.78
2023-03-25T15:20:15.697Z,98698.19
2023-03-25T15:22:44.350Z,98696.34
2023-03-25T15:25:20.724Z,98700.72
2023-03-25T15:28:12.130Z,98698.06
2023-03-25T15:31:22.799Z,98703.16
2023-03-25T15:34:12.423Z,98694.66
2023-03-25T15:36:55.045Z,98701.41
2023-03-25T15:39:37.274Z,98698.63
2023-03-25T15:42:22.517Z,98694.75
2023-03-25T15:45:12.631Z,98685.75
2023-03-25T15:48:00.079Z,98686.94
2023-03-25T15:50:41.962Z,98688.69
2023-03-25T15:53:42.972Z,98687.38
2023-03-25T15:56:14.975Z,98682.53
2023-03-25T15:58:52.308Z,98680.06
2023-03-25T16:01:28.575Z,98681.47
2023-03-25T16:04:06.807Z,98689.88
2023-03-25T16:06:42.098Z,98708.41
2023-03-25T16:09:16.146Z,98705.88
2023-03-25T16:11:44.616Z,98710.50
2023-03-25T16:14:15.058Z,98711.94
2023-03-25T16:16:48.353Z,98719.75
2023-03-25T16:19:21.319Z,98727.78
2023-03-25T16:21:51.470Z,98730.91
2023-03-25T16:24:25.048Z,98722.53
2023-03-25T16:26:53.949Z,98728.72
2023-03-25T16:29:25.059Z,98732.78
2023-03-25T16:31:57.541Z,98725.63
2023-03-25T16:34:29.407Z,98729.38
2023-03-25T16:36:57.932Z,98737.13
2023-03-25T16:39:28.409Z,98740.34
2023-03-25T16:42:02.700Z,98744.19
2023-03-25T16:44:31.463Z,98735.88
2023-03-25T16:47:02.259Z,98746.47
2023-03-25T16:49:34.154Z,98745.53
2023-03-25T16:52:03.331Z,98751.69
2023-03-25T16:54:37.916Z,98753.41
2023-03-25T16:57:08.674Z,98758.44
2023-03-25T16:59:39.457Z,98754.13
2023-03-25T17:02:26.010Z,98757.88
2023-03-25T17:04:58.824Z,98761.06
2023-03-25T17:07:30.665Z,98755.19
2023-03-25T17:10:00.829Z,98754.72
2023-03-25T17:12:30.855Z,98754.34
2023-03-25T17:15:09.407Z,98748.75
2023-03-25T17:17:43.710Z,98757.28
2023-03-25T17:20:19.601Z,98769.19
2023-03-25T17:23:04.487Z,98759.94
2023-03-25T17:25:36.585Z,98763.94
2023-03-25T17:28:21.271Z,98766.22
2023-03-25T17:30:50.357Z,98766.41
2023-03-25T17:33:21.881Z,98767.44
2023-03-25T17:35:57.206Z,98768.47
2023-03-25T17:38:28.428Z,98773.16
2023-03-25T17:41:06.549Z,98770.91
2023-03-25T17:43:37.746Z,98767.34
2023-03-25T17:46:07.740Z,98773.41
2023-03-25T17:48:36.825Z,98771.72
2023-03-25T17:51:07.191Z,98767.53
2023-03-25T17:53:35.643Z,98768.47
2023-03-25T17:56:06.004Z,98772.94
2023-03-25T17:58:34.537Z,98773.78
2023-03-25T18:01:03.035Z,98778.09
2023-03-25T18:03:33.483Z,98774.44
2023-03-25T18:06:02.602Z,98773.41
2023-03-25T18:08:33.559Z,98784.72
2023-03-25T18:11:02.330Z,98780.81
2023-03-25T18:13:31.254Z,98778.84
2023-03-25T18:16:00.401Z,98785.84
2023-03-25T18:18:28.979Z,98784.00
2023-03-25T18:20:59.847Z,98782.28
2023-03-25T18:23:28.486Z,98778.19
2023-03-25T18:26:00.264Z,98786.22
2023-03-25T18:28:29.194Z,98781.00
2023-03-25T18:30:59.695Z,98791.72
2023-03-25T18:33:32.827Z,98791.00
2023-03-25T18:36:01.558Z,98796.22
2023-03-25T18:38:31.038Z,98791.84
2023-03-25T18:41:01.236Z,98793.53
2023-03-25T18:43:29.511Z,98799.69
2023-03-25T18:45:58.669Z,98809.31
2023-03-25T18:48:27.605Z,98805.19
2023-03-25T18:50:58.781Z,98802.09
2023-03-25T18:53:30.544Z,98803.22
2023-03-25T18:56:02.765Z,98799.84
2023-03-25T18:58:34.124Z,98811.25
2023-03-25T19:01:05.067Z,98806.19
2023-03-25T19:03:39.139Z,98809.66
2023-03-25T19:06:11.814Z,98804.59
2023-03-25T19:08:43.582Z,98807.13
2023-03-25T19:11:21.888Z,98803.97
2023-03-25T19:13:52.819Z,98801.44
2023-03-25T19:16:24.890Z,98800.41
2023-03-25T19:18:53.395Z,98798.72
2023-03-25T19:21:22.005Z,98803.38
2023-03-25T19:23:52.515Z,98801.03
2023-03-25T19:26:22.805Z,98796.09
2023-03-25T19:28:52.974Z,98796.41
2023-03-25T19:31:23.463Z,98805.22
2023-03-25T19:33:53.574Z,98803.63
2023-03-25T19:36:26.128Z,98801.00
2023-03-25T19:38:58.883Z,98795.13
2023-03-25T19:41:29.097Z,98795.84
2023-03-25T19:43:57.841Z,98793.25
2023-03-25T19:46:29.209Z,98802.97
2023-03-25T19:48:59.165Z,98793.53
2023-03-25T19:51:30.042Z,98786.50
2023-03-25T19:53:59.609Z,98796.13
2023-03-25T19:56:32.424Z,98789.31
2023-03-25T19:59:03.360Z,98797.25
2023-03-25T20:01:32.799Z,98788.75
2023-03-25T20:04:01.849Z,98793.78
2023-03-25T20:06:33.130Z,98804.22
2023-03-25T20:09:02.685Z,98800.69
2023-03-25T20:11:34.033Z,98786.94
2023-03-25T20:14:03.373Z,98797.59
2023-03-25T20:16:32.360Z,98796.75
2023-03-25T20:19:02.144Z,98790.94
2023-03-25T20:21:30.913Z,98795.69
2023-03-25T20:24:00.265Z,98789.13
2023-03-25T20:26:29.175Z,98798.16
2023-03-25T20:29:03.107Z,98798.25
2023-03-25T20:31:34.822Z,98797.38
2023-03-25T20:34:05.346Z,98799.91
2023-03-25T20:36:35.078Z,98800.78
2023-03-25T20:39:06.027Z,98800.78
2023-03-25T20:41:35.245Z,98788.72
2023-03-25T20:44:05.874Z,98792.16
2023-03-25T20:46:36.709Z,98800.78
2023-03-25T20:49:10.222Z,98799.06
2023-03-25T20:51:40.640Z,98799.06
2023-03-25T20:54:09.552Z,98807.75
2023-03-25T20:56:38.698Z,98798.97
2023-03-25T20:59:12.750Z,98797.22
2023-03-25T21:01:41.343Z,98794.97
2023-03-25T21:04:11.720Z,98791.09
2023-03-25T21:06:42.140Z,98783.81
2023-03-25T21:09:11.128Z,98788.47
2023-03-25T21:11:41.727Z,98787.38
2023-03-25T21:14:13.576Z,98792.28
2023-03-25T21:16:42.609Z,98783.34
2023-03-25T21:19:12.141Z,98790.47
2023-03-25T21:21:41.796Z,98787.28
2023-03-25T21:24:11.571Z,98794.69
2023-03-25T21:26:41.088Z,98793.47
2023-03-25T21:29:10.293Z,98793.91
2023-03-25T21:31:40.416Z,98793.38
2023-03-25T21:34:09.450Z,98783.34
2023-03-25T21:36:38.638Z,98783.00
2023-03-25T21:39:08.294Z,98786.69
2023-03-25T21:41:37.066Z,98783.31
2023-03-25T21:44:07.397Z,98784.38
2023-03-25T21:46:36.926Z,98783.63
2023-03-25T21:49:07.042Z,98785.63
2023-03-25T21:51:36.261Z,98787.47
2023-03-25T21:54:06.555Z,98777.50
2023-03-25T21:56:42.539Z,98791.47
2023-03-25T21:59:11.256Z,98781.50
2023-03-25T22:01:41.946Z,98777.47
2023-03-25T22:04:11.905Z,98781.91
2023-03-25T22:06:41.264Z,98772.56
2023-03-25T22:09:10.728Z,98771.78
2023-03-25T22:11:39.986Z,98769.66
2023-03-25T22:14:09.918Z,98779.53
2023-03-25T22:16:38.769Z,98774.78
2023-03-25T22:19:08.100Z,98774.03
2023-03-25T22:21:38.782Z,98779.44
2023-03-25T22:24:08.459Z,98779.81
2023-03-25T22:26:39.413Z,98777.53
2023-03-25T22:29:10.247Z,98777.59
2023-03-25T22:31:41.163Z,98765.72
2023-03-25T22:34:15.710Z,98768.56
2023-03-25T22:36:50.726Z,98767.06
2023-03-25T22:39:21.225Z,98769.81
2023-03-25T22:41:50.001Z,98770.13
2023-03-25T22:44:18.998Z,98767.59
2023-03-25T22:46:47.997Z,98769.31
2023-03-25T22:49:17.077Z,98773.66
2023-03-25T22:51:47.064Z,98766.47
2023-03-25T22:54:16.599Z,98769.81
2023-03-25T22:56:45.680Z,98771.06
2023-03-25T22:59:15.872Z,98774.44
2023-03-25T23:01:46.111Z,98779.34
2023-03-25T23:04:14.954Z,98778.06
2023-03-25T23:06:48.998Z,98775.31
2023-03-25T23:09:38.104Z,98774.16
2023-03-25T23:12:07.067Z,98785.81
2023-03-25T23:14:35.990Z,98785.44
2023-03-25T23:17:04.656Z,98780.81
2023-03-25T23:19:33.055Z,98779.81
2023-03-25T23:22:02.533Z,98777.31
2023-03-25T23:24:36.037Z,98780.75
2023-03-25T23:27:05.278Z,98783.22
2023-03-25T23:29:35.978Z,98783.22
2023-03-25T23:32:06.230Z,98778.53
2023-03-25T23:34:35.635Z,98772.94
2023-03-25T23:37:04.959Z,98774.47
2023-03-25T23:39:35.077Z,98773.22
2023-03-25T23:42:03.663Z,98779.38
2023-03-25T23:44:32.450Z,98772.47
2023-03-25T23:47:01.794Z,98776.00
2023-03-25T23:49:33.321Z,98771.09
2023-03-25T23:52:02.070Z,98771.34
2023-03-25T23:54:30.587Z,98771.72
2023-03-25T23:57:00.860Z,98772.00
2023-03-25T23:59:29.448Z,98771.19
